Time;durP1;ratioP1;P1;durP2;ratioP2;P2;SDS_P1;SDS_P2;PMS_P1;PMS_P2;Temp;Humidity;BMP_temperature;BMP_pressure;BME280_temperature;BME280_humidity;BME280_pressure;Samples;Min_cycle;Max_cycle;Signal;HPM_P1;HPM_P2
2022/07/04 00:00:03;;;;;;;8.80;3.40;;;;;;;16.47;100.00;96426.88;5033252;28;20488;-71
2022/07/04 00:02:30;;;;;;;9.60;3.67;;;;;;;16.39;100.00;96429.81;5050970;28;20458;-71
2022/07/04 00:04:57;;;;;;;8.63;3.50;;;;;;;16.57;100.00;96430.84;5033177;28;20472;-71
2022/07/04 00:07:24;;;;;;;12.13;3.80;;;;;;;16.77;100.00;96416.22;5032878;28;20458;-71
2022/07/04 00:09:51;;;;;;;10.90;4.07;;;;;;;16.70;100.00;96418.06;5051063;28;20520;-71
2022/07/04 00:12:18;;;;;;;9.70;2.93;;;;;;;16.58;100.00;96383.56;5033180;28;20457;-71
2022/07/04 00:14:44;;;;;;;15.43;3.87;;;;;;;16.24;100.00;96410.16;5032852;28;20484;-71
2022/07/04 00:17:12;;;;;;;6.00;3.40;;;;;;;16.91;100.00;96439.66;5049431;28;20989;-71
2022/07/04 00:19:38;;;;;;;5.40;2.70;;;;;;;16.88;100.00;96399.56;5016723;28;20952;-71
2022/07/04 00:22:05;;;;;;;8.27;3.50;;;;;;;17.15;100.00;96433.06;5032862;28;20440;-71
2022/07/04 00:24:32;;;;;;;4.27;2.87;;;;;;;17.09;100.00;96439.84;5033038;28;20787;-71
2022/07/04 00:26:58;;;;;;;4.20;2.53;;;;;;;16.68;100.00;96406.94;5032496;28;20528;-71
2022/07/04 00:29:25;;;;;;;6.20;3.17;;;;;;;16.52;100.00;96405.22;5049414;28;20941;-71
2022/07/04 00:31:52;;;;;;;9.30;2.80;;;;;;;16.65;100.00;96421.00;5050609;28;20773;-71
2022/07/04 00:34:19;;;;;;;5.97;3.07;;;;;;;16.70;100.00;96410.03;5032890;28;20441;-71
2022/07/04 00:36:45;;;;;;;5.03;2.93;;;;;;;16.59;100.00;96393.09;5016131;28;20473;-71
2022/07/04 00:39:12;;;;;;;4.57;3.30;;;;;;;16.99;100.00;96432.50;5027424;28;21457;-71
2022/07/04 00:41:39;;;;;;;5.83;2.67;;;;;;;16.88;100.00;96412.91;5032400;28;20495;-71
2022/07/04 00:44:09;;;;;;;4.53;3.30;;;;;;;17.13;100.00;96446.78;5033074;28;20433;-71
2022/07/04 00:46:40;;;;;;;7.83;3.30;;;;;;;16.22;100.00;96401.75;5045716;28;20441;-71
2022/07/04 00:49:07;;;;;;;4.97;2.60;;;;;;;16.49;100.00;96416.63;5034627;28;20464;-71
2022/07/04 00:51:36;;;;;;;5.10;2.83;;;;;;;16.79;100.00;96437.97;5054586;28;20920;-71
2022/07/04 00:54:05;;;;;;;4.67;3.27;;;;;;;16.61;100.00;96422.88;5036942;28;20440;-71
2022/07/04 00:56:31;;;;;;;8.33;2.67;;;;;;;16.58;100.00;96415.59;5038872;28;20481;-71
2022/07/04 00:58:59;;;;;;;5.20;3.17;;;;;;;16.52;100.00;96407.88;5039265;28;20457;-71
2022/07/04 01:01:26;;;;;;;3.80;2.83;;;;;;;16.42;100.00;96415.75;5072614;28;20499;-71
2022/07/04 01:03:53;;;;;;;5.33;2.70;;;;;;;16.54;100.00;96442.22;5038930;28;20781;-71
2022/07/04 01:06:20;;;;;;;2.77;2.57;;;;;;;16.48;100.00;96417.75;5019876;28;20516;-72
2022/07/04 01:08:46;;;;;;;4.93;2.67;;;;;;;16.48;100.00;96414.31;5036064;28;20437;-71
2022/07/04 01:11:14;;;;;;;4.83;2.23;;;;;;;16.65;100.00;96439.69;5036431;28;20796;-72
2022/07/04 01:13:41;;;;;;;2.43;2.23;;;;;;;16.24;100.00;96428.84;5052606;28;20460;-71
2022/07/04 01:16:10;;;;;;;5.20;2.70;;;;;;;16.25;100.00;96425.81;5035810;28;20469;-71
2022/07/04 01:18:37;;;;;;;4.70;2.73;;;;;;;16.40;100.00;96434.78;5035847;28;20425;-71
2022/07/04 01:21:05;;;;;;;3.83;2.37;;;;;;;16.02;100.00;96416.31;5036242;28;20461;-71
2022/07/04 01:23:35;;;;;;;4.40;2.40;;;;;;;16.12;100.00;96432.50;5036035;28;20528;-71
2022/07/04 01:26:03;;;;;;;2.97;2.53;;;;;;;16.43;100.00;96431.41;5035829;28;20548;-71
2022/07/04 01:28:29;;;;;;;5.03;2.70;;;;;;;16.34;100.00;96433.56;5053446;28;20437;-71
2022/07/04 01:30:56;;;;;;;3.50;2.70;;;;;;;15.91;100.00;96406.28;5069033;28;20504;-71
2022/07/04 01:33:23;;;;;;;2.70;2.50;;;;;;;15.76;100.00;96411.75;5035528;28;20442;-71
2022/07/04 01:35:50;;;;;;;5.43;3.03;;;;;;;15.57;100.00;96381.34;5035416;28;20500;-71
2022/07/04 01:38:16;;;;;;;6.00;2.50;;;;;;;15.77;100.00;96394.63;5032888;28;20514;-71
2022/07/04 01:40:43;;;;;;;3.43;3.13;;;;;;;15.86;100.00;96424.47;5035635;28;21098;-71
2022/07/04 01:43:10;;;;;;;3.13;2.30;;;;;;;15.78;100.00;96417.50;5068817;28;20488;-71
2022/07/04 01:45:39;;;;;;;3.17;2.80;;;;;;;15.57;100.00;96413.34;5058568;28;20446;-71
2022/07/04 01:48:08;;;;;;;3.73;2.50;;;;;;;15.67;100.00;96430.66;5034836;28;20456;-71
2022/07/04 01:50:35;;;;;;;5.37;2.57;;;;;;;16.08;100.00;96433.56;5053448;28;20852;-71
2022/07/04 01:53:02;;;;;;;3.30;2.60;;;;;;;16.14;100.00;96424.13;5053316;28;20491;-71
2022/07/04 01:55:30;;;;;;;2.80;2.60;;;;;;;16.21;100.00;96426.91;5051814;28;20489;-71
2022/07/04 01:57:57;;;;;;;2.40;2.20;;;;;;;16.07;100.00;96437.38;5035551;28;20445;-71
2022/07/04 02:03:10;;;;;;;2.67;2.27;;;;;;;15.90;100.00;96436.75;5053169;28;20418;-71
2022/07/04 02:05:37;;;;;;;2.70;2.50;;;;;;;15.90;100.00;96406.66;5034941;28;20437;-71
2022/07/04 02:08:05;;;;;;;3.47;3.13;;;;;;;15.64;100.00;96429.47;5035187;28;20441;-71
2022/07/04 02:10:32;;;;;;;3.90;2.90;;;;;;;15.03;100.00;96400.97;5051662;28;20425;-71
2022/07/04 02:13:06;;;;;;;3.27;2.90;;;;;;;15.07;100.00;96433.75;5035103;28;20520;-71
2022/07/04 02:15:36;;;;;;;3.50;2.77;;;;;;;15.57;100.00;96436.56;5034773;28;20496;-71
2022/07/04 02:18:09;;;;;;;5.53;3.07;;;;;;;15.59;100.00;96427.09;5034770;28;20457;-71
2022/07/04 02:20:37;;;;;;;4.37;2.43;;;;;;;15.73;100.00;96405.22;5034563;28;20863;-71
2022/07/04 02:23:04;;;;;;;2.30;2.20;;;;;;;16.01;100.00;96426.22;5034690;28;20433;-71
2022/07/04 02:25:31;;;;;;;3.00;2.80;;;;;;;15.91;100.00;96410.84;5034629;28;20437;-71
2022/07/04 02:27:58;;;;;;;3.50;2.93;;;;;;;16.00;100.00;96434.59;5034442;28;20468;-71
2022/07/04 02:30:25;;;;;;;2.50;2.30;;;;;;;15.71;100.00;96436.81;5026467;28;20472;-71
2022/07/04 02:32:52;;;;;;;3.63;2.73;;;;;;;15.98;100.00;96439.50;5019648;28;20437;-71
2022/07/04 02:35:19;;;;;;;2.50;2.30;;;;;;;15.92;100.00;96439.81;5037312;28;20933;-71
2022/07/04 02:37:45;;;;;;;2.90;2.70;;;;;;;15.84;100.00;96437.41;5033097;28;20545;-71
2022/07/04 02:40:12;;;;;;;4.00;2.57;;;;;;;15.81;100.00;96425.56;5035664;28;20475;-71
2022/07/04 02:42:39;;;;;;;3.77;2.73;;;;;;;15.96;100.00;96408.63;5037547;28;20446;-71
2022/07/04 02:45:07;;;;;;;3.17;2.27;;;;;;;15.80;100.00;96433.91;5030035;28;20442;-71
2022/07/04 02:47:34;;;;;;;7.43;2.90;;;;;;;15.44;100.00;96429.84;5052201;28;20479;-71
2022/07/04 02:50:02;;;;;;;2.60;2.40;;;;;;;15.48;100.00;96436.00;5034402;28;20453;-71
2022/07/04 02:52:29;;;;;;;2.97;2.70;;;;;;;15.60;100.00;96457.19;5017858;28;20433;-71
2022/07/04 02:54:57;;;;;;;4.90;2.93;;;;;;;15.43;100.00;96454.97;5017875;28;20941;-71
2022/07/04 02:57:24;;;;;;;2.60;2.40;;;;;;;15.37;100.00;96443.84;5034091;28;20479;-71
2022/07/04 02:59:51;;;;;;;2.90;2.70;;;;;;;15.33;100.00;96470.38;5050719;28;20513;-71
2022/07/04 03:02:18;;;;;;;3.37;3.07;;;;;;;15.16;100.00;96440.78;5033964;28;20444;-71
2022/07/04 03:04:45;;;;;;;5.30;3.23;;;;;;;15.24;100.00;96448.56;5050623;28;20512;-71
2022/07/04 03:07:12;;;;;;;3.60;3.30;;;;;;;15.49;100.00;96458.84;5033909;28;20441;-71
2022/07/04 03:09:39;;;;;;;2.90;2.70;;;;;;;15.59;100.00;96463.63;5034144;28;20425;-71
2022/07/04 03:12:06;;;;;;;3.13;2.70;;;;;;;15.85;100.00;96476.25;5033330;28;20465;-71
2022/07/04 03:14:33;;;;;;;2.70;2.20;;;;;;;15.95;100.00;96473.00;5051747;28;20521;-71
2022/07/04 03:17:00;;;;;;;2.90;2.70;;;;;;;15.76;100.00;96463.19;5026745;28;20933;-71
2022/07/04 03:19:27;;;;;;;2.60;2.50;;;;;;;15.80;100.00;96466.69;5034288;28;20438;-71
2022/07/04 03:21:54;;;;;;;2.80;2.60;;;;;;;15.57;100.00;96444.53;5033734;28;20442;-71
2022/07/04 03:24:21;;;;;;;2.60;2.50;;;;;;;15.61;100.00;96474.72;5017076;28;20467;-71
2022/07/04 03:26:48;;;;;;;2.80;2.60;;;;;;;15.23;100.00;96428.38;5049832;28;20496;-71
2022/07/04 03:29:14;;;;;;;3.10;2.90;;;;;;;15.53;100.00;96483.69;5033612;28;20441;-71
2022/07/04 03:31:41;;;;;;;2.83;2.63;;;;;;;15.36;100.00;96458.28;5049966;28;20460;-71
2022/07/04 03:34:08;;;;;;;2.93;2.73;;;;;;;15.60;100.00;96457.19;5033334;28;20442;-71
2022/07/04 03:36:35;;;;;;;3.13;2.80;;;;;;;15.65;100.00;96467.56;5033001;28;20991;-71
2022/07/04 03:39:01;;;;;;;4.53;3.00;;;;;;;15.72;100.00;96478.34;5051128;28;20899;-71
2022/07/04 03:41:28;;;;;;;2.80;2.60;;;;;;;15.92;100.00;96485.16;5033348;28;20477;-71
2022/07/04 03:43:55;;;;;;;2.57;2.37;;;;;;;16.10;100.00;96503.34;5051343;28;20837;-71
2022/07/04 03:46:22;;;;;;;2.93;2.67;;;;;;;16.05;100.00;96498.31;5008568;28;20470;-71
2022/07/04 03:48:49;;;;;;;2.97;2.67;;;;;;;16.20;100.00;96494.75;5038236;28;20433;-71
2022/07/04 03:51:16;;;;;;;3.93;2.83;;;;;;;16.17;100.00;96512.25;5015664;28;20965;-71
2022/07/04 03:53:43;;;;;;;3.70;2.53;;;;;;;16.18;100.00;96507.66;5033442;28;20460;-71
2022/07/04 03:56:10;;;;;;;2.40;2.30;;;;;;;15.87;100.00;96487.34;5032942;28;20484;-71
2022/07/04 03:58:37;;;;;;;4.20;2.53;;;;;;;15.84;100.00;96502.16;5050851;28;20488;-71
2022/07/04 04:01:03;;;;;;;4.40;2.80;;;;;;;15.93;100.00;96509.94;5032904;28;21012;-71
2022/07/04 04:06:16;;;;;;;2.50;2.30;;;;;;;16.25;100.00;96519.22;5049846;28;20866;-71
2022/07/04 04:08:42;;;;;;;3.83;3.20;;;;;;;16.39;100.00;96521.31;5029660;28;20454;-71
2022/07/04 04:11:09;;;;;;;2.70;2.50;;;;;;;16.37;100.00;96510.25;5031115;28;20453;-71
2022/07/04 04:13:36;;;;;;;6.10;2.60;;;;;;;16.55;100.00;96524.59;5032958;28;20437;-71
2022/07/04 04:16:03;;;;;;;2.50;2.40;;;;;;;16.20;100.00;96529.41;5033965;28;20476;-71
2022/07/04 04:18:29;;;;;;;3.30;3.03;;;;;;;16.15;100.00;96506.47;5032098;28;20438;-70
2022/07/04 04:20:56;;;;;;;4.07;3.60;;;;;;;16.07;100.00;96530.75;5049748;28;20425;-70
2022/07/04 04:23:23;;;;;;;4.70;2.87;;;;;;;15.87;100.00;96500.66;5054116;28;20475;-70
2022/07/04 04:25:49;;;;;;;4.00;3.30;;;;;;;16.28;100.00;96531.06;5055698;28;20437;-70
2022/07/04 04:28:22;;;;;;;3.20;2.73;;;;;;;16.20;100.00;96537.44;5036690;28;20973;-70
2022/07/04 04:30:52;;;;;;;2.70;2.50;;;;;;;16.19;100.00;96498.53;5054731;28;20983;-70
2022/07/04 04:33:19;;;;;;;3.90;3.60;;;;;;;16.52;100.00;96532.56;5037010;28;20433;-70
2022/07/04 04:35:48;;;;;;;3.80;3.00;;;;;;;16.45;100.00;96519.91;5036784;28;20504;-70
2022/07/04 04:38:15;;;;;;;3.27;3.07;;;;;;;16.66;100.00;96526.66;5036687;28;20461;-70
2022/07/04 04:40:42;;;;;;;3.10;2.90;;;;;;;16.61;100.00;96489.59;5036721;28;20507;-70
2022/07/04 04:43:08;;;;;;;3.20;2.90;;;;;;;16.74;100.00;96537.13;5036764;28;20425;-70
2022/07/04 04:45:35;;;;;;;3.10;2.90;;;;;;;16.69;100.00;96540.09;5049584;28;20517;-71
2022/07/04 04:48:02;;;;;;;3.47;3.13;;;;;;;16.52;100.00;96527.22;5033419;28;20458;-70
2022/07/04 04:50:29;;;;;;;3.10;2.90;;;;;;;16.74;100.00;96549.69;5036690;28;20480;-71
2022/07/04 04:52:55;;;;;;;3.60;2.70;;;;;;;16.81;100.00;96520.41;5054329;28;20429;-71
2022/07/04 04:55:22;;;;;;;6.97;3.27;;;;;;;17.08;100.00;96523.81;5036327;28;20429;-71
2022/07/04 04:57:49;;;;;;;3.77;3.47;;;;;;;16.87;100.00;96513.63;5036378;28;20893;-71
2022/07/04 05:00:15;;;;;;;3.73;3.20;;;;;;;17.28;100.00;96545.81;5069677;28;20437;-71
2022/07/04 05:02:42;;;;;;;8.00;3.60;;;;;;;17.53;100.00;96528.16;5019837;28;20801;-70
2022/07/04 05:05:09;;;;;;;3.37;3.07;;;;;;;17.79;100.00;96551.38;5036225;28;21172;-70
2022/07/04 05:07:36;;;;;;;3.43;3.23;;;;;;;17.75;100.00;96561.25;5054007;28;20476;-70
2022/07/04 05:10:03;;;;;;;3.40;3.00;;;;;;;17.68;100.00;96561.97;5036005;28;20535;-71
2022/07/04 05:12:30;;;;;;;4.00;3.70;;;;;;;17.54;100.00;96545.75;5019607;28;20492;-71
2022/07/04 05:14:57;;;;;;;3.47;3.20;;;;;;;17.50;100.00;96558.31;5036140;28;20488;-70
2022/07/04 05:17:24;;;;;;;3.83;3.53;;;;;;;17.41;100.00;96555.13;5052593;28;20983;-71
2022/07/04 05:19:51;;;;;;;3.67;3.33;;;;;;;17.13;100.00;96526.19;5036161;28;20995;-71
2022/07/04 05:22:17;;;;;;;6.00;3.50;;;;;;;17.16;100.00;96538.03;5036273;28;20457;-71
2022/07/04 05:24:44;;;;;;;5.33;3.27;;;;;;;16.91;100.00;96530.47;5035794;28;20486;-71
2022/07/04 05:27:12;;;;;;;3.53;3.23;;;;;;;17.10;100.00;96554.41;5035654;28;20967;-71
2022/07/04 05:29:38;;;;;;;4.93;4.10;;;;;;;17.25;100.00;96575.94;5035770;28;20442;-71
2022/07/04 05:32:06;;;;;;;4.17;3.90;;;;;;;17.32;100.00;96576.03;5035701;28;20480;-70
2022/07/04 05:34:34;;;;;;;4.47;3.83;;;;;;;17.18;100.00;96559.81;5035133;28;20494;-70
2022/07/04 05:37:02;;;;;;;4.00;3.40;;;;;;;17.28;100.00;96584.00;5035393;28;21000;-70
2022/07/04 05:39:29;;;;;;;7.83;3.67;;;;;;;17.37;100.00;96579.16;5051120;28;20888;-70
2022/07/04 05:41:56;;;;;;;7.03;4.13;;;;;;;17.18;100.00;96541.09;5035495;28;20529;-70
2022/07/04 05:44:23;;;;;;;8.17;4.10;;;;;;;17.48;100.00;96571.25;5053301;28;20944;-70
2022/07/04 05:46:49;;;;;;;7.33;3.97;;;;;;;17.42;100.00;96567.38;5016849;28;21013;-72
2022/07/04 05:49:16;;;;;;;6.20;4.00;;;;;;;17.44;100.00;96562.44;5026281;28;20554;-70
2022/07/04 05:51:43;;;;;;;10.37;4.13;;;;;;;17.21;100.00;96540.38;5019061;28;20496;-70
2022/07/04 05:54:10;;;;;;;10.33;4.30;;;;;;;17.44;100.00;96579.22;5019095;28;20830;-70
2022/07/04 05:56:38;;;;;;;13.80;4.70;;;;;;;17.13;100.00;96577.72;5035273;28;20926;-70
2022/07/04 05:59:04;;;;;;;10.80;4.13;;;;;;;17.16;100.00;96583.47;5035122;28;20442;-70
2022/07/04 06:01:31;;;;;;;8.73;4.50;;;;;;;17.35;100.00;96596.69;5018892;28;20821;-70
2022/07/04 06:03:58;;;;;;;10.47;4.50;;;;;;;17.53;100.00;96578.97;5035416;28;20429;-70
2022/07/04 06:06:24;;;;;;;10.20;4.90;;;;;;;17.66;100.00;96593.63;5035201;28;20452;-70
2022/07/04 06:08:51;;;;;;;11.43;4.03;;;;;;;18.09;100.00;96594.09;5018479;28;20433;-70
2022/07/04 06:11:18;;;;;;;8.60;4.70;;;;;;;18.22;100.00;96607.97;5034865;28;20441;-70
2022/07/04 06:13:44;;;;;;;8.87;3.73;;;;;;;18.07;100.00;96591.03;5052813;28;20456;-70
2022/07/04 06:16:11;;;;;;;15.60;4.40;;;;;;;17.59;100.00;96564.13;5034786;28;20496;-70
2022/07/04 06:18:38;;;;;;;4.80;3.77;;;;;;;17.51;100.00;96567.09;5034673;28;20493;-70
2022/07/04 06:21:05;;;;;;;9.97;3.60;;;;;;;17.67;100.00;96586.38;5052685;28;20426;-70
2022/07/04 06:23:32;;;;;;;15.40;4.90;;;;;;;18.04;100.00;96599.03;5034564;28;20508;-70
2022/07/04 06:25:58;;;;;;;10.10;3.93;;;;;;;18.26;100.00;96606.09;5034708;28;20548;-70
2022/07/04 06:28:26;;;;;;;6.77;3.77;;;;;;;18.58;100.00;96607.16;5034447;28;20857;-70
2022/07/04 06:31:12;;;;;;;4.70;3.70;;;;;;;18.75;100.00;96611.13;5034536;28;20444;-70
2022/07/04 06:36:24;;;;;;;9.43;3.20;;;;;;;19.04;100.00;96566.50;5026593;28;20544;-70
2022/07/04 06:38:51;;;;;;;6.63;3.43;;;;;;;19.76;100.00;96613.19;5050407;28;20457;-70
2022/07/04 06:41:17;;;;;;;5.40;3.77;;;;;;;19.91;100.00;96611.34;5017836;28;20477;-70
2022/07/04 06:43:44;;;;;;;3.40;2.97;;;;;;;20.01;100.00;96587.19;5034696;28;20520;-70
2022/07/04 06:46:11;;;;;;;8.10;3.20;;;;;;;20.57;100.00;96606.47;5017208;28;20513;-70
2022/07/04 06:48:37;;;;;;;5.47;3.60;;;;;;;20.31;100.00;96613.72;5034361;28;20441;-70
2022/07/04 06:51:04;;;;;;;4.63;3.13;;;;;;;20.14;100.00;96616.34;5052050;28;20484;-70
2022/07/04 06:53:31;;;;;;;9.30;3.47;;;;;;;21.16;100.00;96620.97;5034357;28;20516;-70
2022/07/04 06:55:58;;;;;;;12.17;5.23;;;;;;;20.42;100.00;96584.19;5051887;28;20488;-70
2022/07/04 06:58:24;;;;;;;7.00;3.30;;;;;;;20.05;100.00;96614.81;5014460;28;20466;-70
2022/07/04 07:00:51;;;;;;;6.20;3.30;;;;;;;19.61;100.00;96587.47;5046246;28;20457;-70
2022/07/04 07:03:18;;;;;;;3.70;3.40;;;;;;;19.91;100.00;96587.94;5033888;28;20516;-70
2022/07/04 07:05:45;;;;;;;2.80;2.60;;;;;;;20.03;100.00;96590.28;5033811;28;20438;-70
2022/07/04 07:08:28;;;;;;;3.13;2.77;;;;;;;20.88;100.00;96611.03;5028711;28;20418;-70
2022/07/04 07:11:12;;;;;;;3.13;2.90;;;;;;;20.74;100.00;96615.66;5033899;28;21003;-70
2022/07/04 07:13:41;;;;;;;2.73;2.53;;;;;;;20.61;100.00;96581.13;5047554;28;21174;-70
2022/07/04 07:16:07;;;;;;;3.50;3.20;;;;;;;21.23;99.43;96615.59;5066866;28;20489;-70
2022/07/04 07:18:34;;;;;;;3.23;3.03;;;;;;;21.55;97.21;96603.97;5033525;28;20480;-70
2022/07/04 07:21:01;;;;;;;3.17;2.77;;;;;;;21.22;96.30;96605.97;5033869;28;20916;-70
2022/07/04 07:23:29;;;;;;;4.00;2.70;;;;;;;21.88;93.18;96618.03;5033598;28;20466;-70
2022/07/04 07:25:56;;;;;;;3.33;2.57;;;;;;;21.94;93.39;96617.25;5051442;28;20841;-70
2022/07/04 07:28:23;;;;;;;4.33;3.20;;;;;;;21.48;92.75;96588.59;5033334;28;20944;-70
2022/07/04 07:30:50;;;;;;;3.33;2.70;;;;;;;21.99;92.55;96605.28;5033369;28;20971;-70
2022/07/04 07:33:16;;;;;;;3.20;3.00;;;;;;;22.46;88.33;96595.78;5017061;28;20465;-70
2022/07/04 07:35:43;;;;;;;2.77;2.57;;;;;;;22.89;85.43;96573.84;5033472;28;20445;-70
2022/07/04 07:38:10;;;;;;;4.30;3.13;;;;;;;23.10;82.28;96586.34;5048481;28;20454;-70
2022/07/04 07:40:36;;;;;;;3.20;2.90;;;;;;;22.83;82.33;96576.19;5033307;28;20885;-70
2022/07/04 07:43:03;;;;;;;2.63;2.43;;;;;;;23.13;80.60;96599.03;5049962;28;20476;-70
2022/07/04 07:45:30;;;;;;;2.70;2.30;;;;;;;22.66;79.52;96598.69;5051120;28;20433;-70
2022/07/04 07:47:56;;;;;;;3.27;2.97;;;;;;;23.40;78.30;96602.59;5051005;28;20441;-70
2022/07/04 07:50:23;;;;;;;2.60;2.40;;;;;;;23.23;77.03;96585.41;5016807;28;20540;-70
2022/07/04 07:52:50;;;;;;;3.30;3.10;;;;;;;23.21;77.73;96606.66;5016880;28;20854;-70
2022/07/04 07:55:16;;;;;;;3.27;2.90;;;;;;;23.52;77.00;96610.16;5033437;28;20421;-70
2022/07/04 07:57:43;;;;;;;4.00;2.93;;;;;;;23.75;76.43;96609.50;5016786;28;20509;-70
2022/07/04 08:00:15;;;;;;;2.80;2.60;;;;;;;23.92;73.22;96596.97;5032981;28;20441;-70
2022/07/04 08:05:47;;;;;;;3.83;2.53;;;;;;;23.66;72.43;96582.25;5032960;28;20433;-70
2022/07/04 08:08:13;;;;;;;4.57;2.20;;;;;;;24.33;71.50;96614.94;5050867;28;20484;-70
2022/07/04 08:10:40;;;;;;;4.27;2.63;;;;;;;24.66;70.77;96610.56;5049498;28;20468;-70
2022/07/04 08:13:07;;;;;;;6.43;2.30;;;;;;;24.21;70.58;96600.03;5049642;28;20528;-71
2022/07/04 08:15:34;;;;;;;3.67;2.60;;;;;;;24.25;70.12;96594.56;5032839;28;20443;-70
2022/07/04 08:18:00;;;;;;;3.50;2.90;;;;;;;24.10;69.54;96591.31;5016510;28;20903;-71
2022/07/04 08:20:27;;;;;;;3.80;2.80;;;;;;;23.98;70.34;96597.25;5032914;28;20528;-71
2022/07/04 08:22:54;;;;;;;4.03;3.07;;;;;;;23.67;70.28;96591.88;5066090;28;20504;-70
2022/07/04 08:25:21;;;;;;;2.87;2.67;;;;;;;23.83;70.78;96602.84;5050630;28;20429;-70
2022/07/04 08:27:47;;;;;;;3.47;2.60;;;;;;;23.92;69.68;96599.66;5032624;28;20584;-70
2022/07/04 08:30:14;;;;;;;2.90;2.50;;;;;;;23.56;69.67;96597.38;5032647;28;20477;-70
2022/07/04 08:32:41;;;;;;;3.27;2.87;;;;;;;23.56;70.20;96597.38;5032731;28;21035;-70
2022/07/04 08:35:08;;;;;;;5.00;2.50;;;;;;;23.80;70.92;96582.06;5050556;28;20431;-70
2022/07/04 08:37:34;;;;;;;2.77;2.40;;;;;;;24.64;69.69;96600.16;5050475;28;20504;-70
2022/07/04 08:40:06;;;;;;;3.63;3.03;;;;;;;24.90;67.71;96597.78;5050246;28;20433;-71
2022/07/04 08:42:37;;;;;;;3.90;2.60;;;;;;;24.65;66.31;96569.22;5032976;28;20453;-71
2022/07/04 08:45:05;;;;;;;3.10;2.90;;;;;;;25.39;65.57;96595.38;5016015;28;21036;-71
2022/07/04 08:47:34;;;;;;;2.57;2.37;;;;;;;25.12;64.81;96604.38;5050309;28;20500;-70
2022/07/04 08:50:06;;;;;;;3.77;2.20;;;;;;;25.15;64.98;96591.97;5065975;28;20478;-71
2022/07/04 08:52:41;;;;;;;2.87;2.40;;;;;;;24.97;65.94;96592.22;5065874;28;20948;-71
2022/07/04 09:00:44;;;;;;;5.07;3.37;;;;;;;24.88;65.72;96600.16;5032494;28;20468;-70
2022/07/04 09:03:11;;;;;;;2.60;2.43;;;;;;;24.84;64.49;96592.09;5032454;28;20524;-70
2022/07/04 09:05:39;;;;;;;2.70;2.50;;;;;;;25.19;63.60;96590.69;5032585;28;20444;-70
2022/07/04 09:08:06;;;;;;;5.33;2.30;;;;;;;25.68;62.45;96595.56;5032576;28;20448;-70
2022/07/04 09:10:33;;;;;;;5.13;2.43;;;;;;;25.84;63.80;96592.91;5034997;28;20461;-71
2022/07/04 09:13:04;;;;;;;3.93;2.70;;;;;;;26.03;61.14;96594.81;5036358;28;20452;-71
2022/07/04 09:15:42;;;;;;;4.70;2.37;;;;;;;26.22;62.13;96596.72;5036009;28;20441;-71
2022/07/04 09:18:24;;;;;;;3.03;2.23;;;;;;;26.31;60.54;96593.41;5053800;28;21058;-71
2022/07/04 09:20:52;;;;;;;2.53;2.27;;;;;;;26.21;60.34;96587.06;5036170;28;20966;-71
2022/07/04 09:23:27;;;;;;;2.33;2.10;;;;;;;26.22;60.71;96588.56;5052527;28;20441;-71
2022/07/04 09:26:21;;;;;;;2.47;2.27;;;;;;;26.08;60.82;96580.78;5036066;28;20507;-71
2022/07/04 09:28:54;;;;;;;2.77;2.50;;;;;;;26.04;60.51;96582.03;5035651;28;20472;-71
2022/07/04 09:31:23;;;;;;;2.33;2.13;;;;;;;26.14;59.28;96589.16;5035969;28;20835;-71
2022/07/04 09:33:51;;;;;;;5.47;2.40;;;;;;;25.77;59.57;96588.41;5019280;28;20441;-71
2022/07/04 09:36:22;;;;;;;3.23;2.40;;;;;;;25.51;59.39;96581.22;5035862;28;20877;-72
2022/07/04 09:39:14;;;;;;;4.10;2.03;;;;;;;25.44;60.92;96584.03;5035243;28;20458;-72
2022/07/04 09:42:01;;;;;;;2.90;2.50;;;;;;;24.65;63.18;96587.38;5035710;28;20438;-72
2022/07/04 09:44:33;;;;;;;4.07;2.17;;;;;;;24.91;61.97;96585.78;5052118;28;20441;-72
2022/07/04 09:47:22;;;;;;;4.53;2.37;;;;;;;24.63;62.84;96585.09;5035290;28;20473;-72
2022/07/04 09:50:12;;;;;;;2.53;2.30;;;;;;;24.73;62.05;96570.63;5051847;28;20457;-72
2022/07/04 09:52:54;;;;;;;3.57;2.30;;;;;;;24.95;61.70;96586.47;5053203;28;20414;-71
2022/07/04 09:55:29;;;;;;;2.50;2.30;;;;;;;25.04;61.16;96587.50;5035408;28;20447;-71
2022/07/04 09:58:10;;;;;;;2.67;2.47;;;;;;;24.91;60.87;96583.84;5051520;28;20527;-71
2022/07/04 10:00:42;;;;;;;2.73;2.10;;;;;;;24.82;62.09;96566.63;5052961;28;20421;-71
2022/07/04 10:03:32;;;;;;;2.67;2.47;;;;;;;25.09;60.87;96596.31;5068420;28;20439;-71
2022/07/04 10:06:11;;;;;;;5.00;2.80;;;;;;;24.95;61.36;96594.59;5018631;28;20512;-71
2022/07/04 10:08:42;;;;;;;6.80;2.57;;;;;;;25.14;60.89;96595.84;5052874;28;20807;-71
2022/07/04 10:11:10;;;;;;;2.50;2.30;;;;;;;25.77;59.56;96585.69;5035275;28;20848;-71
2022/07/04 10:13:44;;;;;;;2.90;2.50;;;;;;;25.96;59.29;96588.78;5052809;28;20425;-71
2022/07/04 10:16:11;;;;;;;4.30;3.00;;;;;;;25.17;60.43;96571.41;5034881;28;20453;-71
2022/07/04 10:18:40;;;;;;;3.03;2.77;;;;;;;25.34;59.86;96594.66;5067776;28;20821;-71
2022/07/04 10:21:07;;;;;;;2.70;2.50;;;;;;;25.21;61.75;96587.56;5050109;28;20433;-71
2022/07/04 10:23:34;;;;;;;3.10;2.77;;;;;;;25.72;59.08;96586.19;5034599;28;20449;-71
2022/07/04 10:26:02;;;;;;;4.17;3.07;;;;;;;25.36;61.73;96572.59;5034793;28;20874;-70
2022/07/04 10:28:29;;;;;;;5.17;3.20;;;;;;;25.57;61.67;96596.53;5034639;28;20544;-70
2022/07/04 10:30:58;;;;;;;3.33;3.00;;;;;;;25.17;59.92;96600.41;5034824;28;20433;-71
2022/07/04 10:33:30;;;;;;;3.70;2.73;;;;;;;25.60;59.33;96595.69;5034422;28;20841;-71
2022/07/04 10:36:04;;;;;;;5.00;3.70;;;;;;;25.57;59.61;96595.78;5052741;28;20457;-71
2022/07/04 10:38:46;;;;;;;4.70;4.30;;;;;;;25.45;61.07;96588.28;5034564;28;20555;-71
2022/07/04 10:41:14;;;;;;;5.60;3.37;;;;;;;25.63;60.03;96588.66;5033918;28;21098;-71
2022/07/04 10:43:56;;;;;;;5.10;4.43;;;;;;;25.90;59.31;96580.38;5034541;28;20525;-71
2022/07/04 10:46:29;;;;;;;5.70;5.20;;;;;;;25.76;59.41;96586.88;5051888;28;20507;-71
2022/07/04 10:49:00;;;;;;;6.07;4.60;;;;;;;25.55;58.12;96584.59;5050889;28;20437;-70
2022/07/04 10:51:35;;;;;;;5.30;4.20;;;;;;;25.31;58.10;96595.50;5026352;28;20491;-70
2022/07/04 10:54:05;;;;;;;5.70;4.00;;;;;;;24.90;58.66;96603.19;5034260;28;21036;-70
2022/07/04 10:56:36;;;;;;;6.00;4.80;;;;;;;25.10;58.31;96604.00;5034052;28;20453;-70
2022/07/04 10:59:10;;;;;;;5.00;4.60;;;;;;;24.43;60.42;96584.25;5051939;28;20457;-70
2022/07/04 11:02:05;;;;;;;3.67;3.37;;;;;;;24.99;58.51;96584.50;5052028;28;20970;-70
2022/07/04 11:05:10;;;;;;;3.20;3.00;;;;;;;25.04;58.54;96608.38;5034049;28;20433;-70
2022/07/04 11:07:40;;;;;;;2.90;2.60;;;;;;;24.84;58.33;96610.25;5051852;28;20449;-70
2022/07/04 11:10:13;;;;;;;3.27;3.07;;;;;;;24.64;59.01;96610.97;5033856;28;20503;-70
2022/07/04 11:12:59;;;;;;;4.00;3.60;;;;;;;24.39;59.17;96616.00;5034428;28;20434;-70
2022/07/04 11:15:27;;;;;;;5.53;5.03;;;;;;;24.52;59.40;96614.25;5033811;28;20449;-71
2022/07/04 11:17:55;;;;;;;8.30;7.10;;;;;;;24.70;59.97;96611.25;5017248;28;20454;-71
2022/07/04 11:20:24;;;;;;;6.47;5.87;;;;;;;24.82;59.89;96607.94;5050466;28;20499;-71
2022/07/04 11:22:51;;;;;;;8.50;6.53;;;;;;;25.51;59.72;96608.28;5051925;28;20453;-71
2022/07/04 11:25:18;;;;;;;5.40;4.90;;;;;;;25.78;59.25;96605.44;5033585;28;20441;-71
2022/07/04 11:27:44;;;;;;;4.70;3.50;;;;;;;26.37;56.92;96578.19;5033651;28;20545;-71
2022/07/04 11:30:11;;;;;;;4.10;3.80;;;;;;;26.55;57.92;96599.44;5051375;28;20426;-71
2022/07/04 11:32:41;;;;;;;3.40;3.10;;;;;;;26.98;56.02;96609.25;5051107;28;20429;-71
2022/07/04 11:35:08;;;;;;;2.70;2.37;;;;;;;25.42;57.41;96579.06;5017058;28;20445;-71
2022/07/04 11:37:35;;;;;;;3.07;2.87;;;;;;;24.64;58.99;96562.28;5033766;28;20863;-71
2022/07/04 11:45:53;;;;;;;4.50;4.10;;;;;;;25.90;56.29;96575.72;5051926;28;20441;-71
2022/07/04 11:48:24;;;;;;;3.70;3.40;;;;;;;26.18;56.50;96587.13;5049792;28;20444;-71
2022/07/04 11:50:51;;;;;;;3.10;2.87;;;;;;;26.67;54.65;96581.72;5033179;28;20965;-71
2022/07/04 11:53:19;;;;;;;2.83;2.50;;;;;;;26.71;54.26;96582.38;5016868;28;20488;-71
2022/07/04 11:55:57;;;;;;;2.00;1.90;;;;;;;26.57;51.50;96586.22;5033583;28;20430;-71